LEGE/GRO METAR and TAF weather

Enter ICAO airport designator
Station Type Date Time Source
LEGE METAR 2021/08/05 03:30 UTC NOAA

LEGE 050330Z 00000KT 9999 FEW015 15/15 Q1015


Station Type Date Time Source
LEGE Decoded METAR 2021/08/05 03:30 UTC NOAA

Gerona / Costa Brava, Spain (LEGE) 41-54N 002-46E 129M
Aug 04, 2021 - 11:30 PM EDT / 2021.08.05 0330 UTC
Wind: Calm:0
Visibility: greater than 7 mile(s):0
Sky conditions: mostly clear
Temperature: 59 F (15 C)
Dew Point: 59 F (15 C)
Relative Humidity: 100%
Pressure (altimeter): 29.97 in. Hg (1015 hPa)
ob: LEGE 050330Z 00000KT 9999 FEW015 15/15 Q1015
cycle: 3

Station Type Date Time Source
LEGE TAF 2021/08/04 18:27 UTC NOAA

TAF LEGE 041700Z 0418/0518 VRB04KT 9999 SCT014 TX28/0512Z TN15/0506Z
TEMPO 0418/0420 08010KT 3000 TSRA BKN020 FEW025CB PROB30
TEMPO 0418/0420 33007KT PROB40
TEMPO 0422/0506 1000 BCFG BKN005
BECMG 0510/0512 16010KT

Example: see airport list